createdAt,value
2023-09-06T00:00:29.243Z,98535.49
2023-09-06T00:02:59.409Z,98541.44
2023-09-06T00:05:28.295Z,98542.38
2023-09-06T00:07:55.474Z,98543.98
2023-09-06T00:10:22.876Z,98539.23
2023-09-06T00:12:50.098Z,98543.04
2023-09-06T00:15:17.333Z,98547.10
2023-09-06T00:17:45.230Z,98548.27
2023-09-06T00:20:21.217Z,98547.80
2023-09-06T00:22:59.682Z,98551.27
2023-09-06T00:25:28.590Z,98553.85
2023-09-06T00:27:57.195Z,98555.98
2023-09-06T00:30:24.487Z,98557.99
2023-09-06T00:32:54.945Z,98556.15
2023-09-06T00:35:26.991Z,98558.63
2023-09-06T00:37:55.677Z,98561.73
2023-09-06T00:40:24.253Z,98561.70
2023-09-06T00:43:01.398Z,98563.45
2023-09-06T00:45:52.534Z,98560.92
2023-09-06T00:48:25.050Z,98561.95
2023-09-06T00:50:55.344Z,98563.69
2023-09-06T00:53:23.962Z,98561.39
2023-09-06T00:55:51.456Z,98559.46
2023-09-06T00:58:20.273Z,98558.91
2023-09-06T01:04:56.534Z,98557.23
2023-09-06T01:08:43.762Z,98558.73
2023-09-06T01:11:56.785Z,98555.25
2023-09-06T01:15:23.922Z,98555.86
2023-09-06T01:18:40.747Z,98553.02
2023-09-06T01:21:50.498Z,98549.48
2023-09-06T01:24:57.952Z,98541.09
2023-09-06T01:28:28.643Z,98535.20
2023-09-06T01:31:57.587Z,98539.77
2023-09-06T01:35:26.645Z,98536.23
2023-09-06T01:38:43.629Z,98536.27
2023-09-06T01:42:10.495Z,98535.59
2023-09-06T01:45:37.646Z,98526.48
2023-09-06T01:48:46.741Z,98526.55
2023-09-06T01:52:14.316Z,98521.54
2023-09-06T01:56:01.030Z,98523.73
2023-09-06T01:59:48.089Z,98529.43
2023-09-06T02:03:11.406Z,98531.13
2023-09-06T02:06:16.670Z,98529.41
2023-09-06T02:09:23.927Z,98525.05
2023-09-06T02:12:31.253Z,98526.22
2023-09-06T02:15:18.489Z,98523.43
2023-09-06T02:18:16.447Z,98526.90
2023-09-06T02:21:43.782Z,98525.00
2023-09-06T02:24:54.035Z,98523.00
2023-09-06T02:28:06.224Z,98530.58
2023-09-06T02:31:33.167Z,98526.77
2023-09-06T02:34:43.008Z,98527.97
2023-09-06T02:37:39.043Z,98532.05
2023-09-06T02:41:06.112Z,98526.98
2023-09-06T02:44:15.176Z,98523.77
2023-09-06T02:47:31.321Z,98521.73
2023-09-06T02:50:41.212Z,98519.73
2023-09-06T02:53:33.913Z,98518.98
2023-09-06T02:56:52.430Z,98523.46
2023-09-06T03:00:19.357Z,98527.32
2023-09-06T03:03:32.249Z,98531.61
2023-09-06T03:07:02.952Z,98528.83
2023-09-06T03:10:12.892Z,98531.02
2023-09-06T03:13:44.528Z,98538.48
2023-09-06T03:17:12.626Z,98537.91
2023-09-06T03:20:46.496Z,98535.63
2023-09-06T03:24:14.009Z,98535.98
2023-09-06T03:27:48.096Z,98530.69
2023-09-06T03:30:57.212Z,98532.65
2023-09-06T03:34:04.891Z,98531.68
2023-09-06T03:37:14.604Z,98530.26
2023-09-06T03:39:50.680Z,98536.50
2023-09-06T03:42:43.410Z,98538.41
2023-09-06T03:45:55.928Z,98539.31
2023-09-06T03:49:23.024Z,98537.16
2023-09-06T03:52:19.345Z,98536.73
2023-09-06T03:55:11.955Z,98536.14
2023-09-06T03:58:19.893Z,98532.92
2023-09-06T04:01:26.961Z,98534.73
2023-09-06T04:05:13.918Z,98535.54
2023-09-06T04:08:21.426Z,98530.27
2023-09-06T04:11:28.544Z,98537.48
2023-09-06T04:15:15.863Z,98540.85
2023-09-06T04:18:24.160Z,98550.10
2023-09-06T04:21:33.124Z,98550.86
2023-09-06T04:24:59.597Z,98551.87
2023-09-06T04:28:26.989Z,98558.08
2023-09-06T04:31:35.762Z,98557.10
2023-09-06T04:35:29.403Z,98559.71
2023-09-06T04:39:16.583Z,98560.42
2023-09-06T04:43:00.428Z,98561.76
2023-09-06T04:46:28.564Z,98554.99
2023-09-06T04:50:00.014Z,98555.55
2023-09-06T04:52:47.163Z,98558.58
2023-09-06T04:56:16.224Z,98558.95
2023-09-06T04:59:44.568Z,98552.94
2023-09-06T05:03:16.177Z,98555.30
2023-09-06T05:14:06.507Z,98569.39
2023-09-06T05:17:55.755Z,98567.92
2023-09-06T05:25:40.417Z,98580.80
2023-09-06T05:33:29.148Z,98575.98
2023-09-06T05:37:18.217Z,98578.10
2023-09-06T05:44:38.484Z,98577.23
2023-09-06T05:48:35.614Z,98575.15
2023-09-06T05:52:47.549Z,98582.90
2023-09-06T05:56:47.796Z,98576.85
2023-09-06T06:12:29.409Z,98592.98
2023-09-06T06:16:31.256Z,98592.70
2023-09-06T06:20:30.810Z,98587.21
2023-09-06T06:24:12.867Z,98584.09
2023-09-06T06:27:27.096Z,98582.30
2023-09-06T06:30:36.129Z,98577.70
2023-09-06T06:33:50.179Z,98573.79
2023-09-06T06:37:37.361Z,98571.29
2023-09-06T06:41:24.578Z,98570.94
2023-09-06T06:44:40.121Z,98571.42
2023-09-06T06:48:07.809Z,98571.75
2023-09-06T06:51:40.999Z,98571.92
2023-09-06T06:55:29.200Z,98574.80
2023-09-06T06:59:16.595Z,98575.65
2023-09-06T07:03:03.781Z,98575.79
2023-09-06T07:06:52.745Z,98577.41
2023-09-06T07:10:14.301Z,98579.66
2023-09-06T07:12:53.694Z,98580.27
2023-09-06T07:16:22.031Z,98576.18
2023-09-06T07:19:10.198Z,98574.65
2023-09-06T07:21:38.733Z,98573.64
2023-09-06T07:24:11.684Z,98571.41
2023-09-06T07:26:44.593Z,98572.12
2023-09-06T07:29:12.212Z,98572.65
2023-09-06T07:31:40.768Z,98569.09
2023-09-06T07:34:11.356Z,98566.81
2023-09-06T07:36:39.075Z,98564.46
2023-09-06T07:39:10.996Z,98564.09
2023-09-06T07:42:01.757Z,98565.48
2023-09-06T07:45:28.793Z,98563.10
2023-09-06T07:48:56.550Z,98567.65
2023-09-06T07:51:29.414Z,98568.79
2023-09-06T07:54:08.925Z,98568.27
2023-09-06T07:56:36.268Z,98567.45
2023-09-06T07:59:27.594Z,98565.50
2023-09-06T08:01:55.321Z,98570.34
2023-09-06T08:04:23.407Z,98567.19
2023-09-06T08:06:51.609Z,98567.45
2023-09-06T08:09:19.232Z,98568.29
2023-09-06T08:11:46.758Z,98573.20
2023-09-06T08:14:15.105Z,98567.75
2023-09-06T08:16:42.499Z,98568.37
2023-09-06T08:19:09.913Z,98570.92
2023-09-06T08:21:37.408Z,98563.67
2023-09-06T08:24:05.449Z,98563.91
2023-09-06T08:26:33.188Z,98564.93
2023-09-06T08:29:00.536Z,98565.10
2023-09-06T08:31:28.182Z,98566.02
2023-09-06T08:33:55.654Z,98568.61
2023-09-06T08:36:23.641Z,98560.47
2023-09-06T08:38:51.016Z,98564.52
2023-09-06T08:41:19.109Z,98566.80
2023-09-06T08:43:47.646Z,98565.55
2023-09-06T08:46:46.371Z,98563.59
2023-09-06T08:49:15.827Z,98559.09
2023-09-06T08:51:45.149Z,98558.59
2023-09-06T08:54:14.236Z,98553.77
2023-09-06T08:56:42.885Z,98556.90
2023-09-06T08:59:10.832Z,98557.26
2023-09-06T09:01:39.538Z,98561.20
2023-09-06T09:04:07.403Z,98559.52
2023-09-06T09:06:35.172Z,98562.81
2023-09-06T09:09:19.432Z,98560.14
2023-09-06T09:11:51.780Z,98554.73
2023-09-06T09:14:27.631Z,98556.92
2023-09-06T09:17:01.241Z,98560.93
2023-09-06T09:19:29.162Z,98562.84
2023-09-06T09:22:01.243Z,98565.91
2023-09-06T09:24:32.261Z,98569.50
2023-09-06T09:27:00.259Z,98574.43
2023-09-06T09:29:30.094Z,98579.08
2023-09-06T09:32:05.552Z,98577.95
2023-09-06T09:34:34.437Z,98574.56
2023-09-06T09:38:01.493Z,98574.23
2023-09-06T09:43:27.304Z,98577.54
2023-09-06T09:45:56.715Z,98576.69
2023-09-06T09:49:24.361Z,98579.02
2023-09-06T09:51:53.683Z,98582.48
2023-09-06T09:54:25.320Z,98583.09
2023-09-06T09:57:06.626Z,98582.38
2023-09-06T09:59:37.936Z,98579.20
2023-09-06T10:02:10.874Z,98578.14
2023-09-06T10:04:44.391Z,98579.20
2023-09-06T10:07:15.930Z,98580.89
2023-09-06T10:10:08.792Z,98582.43
2023-09-06T10:12:36.602Z,98583.61
2023-09-06T10:15:45.448Z,98585.85
2023-09-06T10:18:56.447Z,98582.41
2023-09-06T10:21:47.405Z,98577.23
2023-09-06T10:25:06.430Z,98575.59
2023-09-06T10:27:35.570Z,98581.73
2023-09-06T10:31:15.092Z,98576.73
2023-09-06T10:35:03.328Z,98573.31
2023-09-06T10:39:03.230Z,98573.39
2023-09-06T10:42:52.509Z,98575.27
2023-09-06T10:46:53.504Z,98569.55
2023-09-06T10:51:01.065Z,98566.55
2023-09-06T10:54:48.834Z,98563.72
2023-09-06T10:58:40.255Z,98563.98
2023-09-06T11:02:26.306Z,98559.33
2023-09-06T11:06:23.007Z,98559.46
2023-09-06T11:10:13.937Z,98562.16
2023-09-06T11:14:13.712Z,98563.92
2023-09-06T11:18:01.669Z,98559.80
2023-09-06T11:21:49.388Z,98562.61
2023-09-06T11:25:37.261Z,98567.70
2023-09-06T11:29:27.396Z,98558.59
2023-09-06T11:33:15.728Z,98559.90
2023-09-06T11:37:06.573Z,98557.21
2023-09-06T11:40:54.308Z,98550.05
2023-09-06T11:44:42.713Z,98553.83
2023-09-06T11:48:30.816Z,98548.22
2023-09-06T11:52:21.632Z,98546.45
2023-09-06T11:56:12.680Z,98545.65
2023-09-06T12:00:05.901Z,98546.36
2023-09-06T12:02:53.322Z,98545.30
2023-09-06T12:05:34.939Z,98542.28
2023-09-06T12:08:11.349Z,98534.59
2023-09-06T12:10:41.760Z,98540.41
2023-09-06T12:13:09.947Z,98540.19
2023-09-06T12:15:37.261Z,98538.30
2023-09-06T12:18:05.284Z,98537.69
2023-09-06T12:20:34.754Z,98535.33
2023-09-06T12:23:02.349Z,98533.07
2023-09-06T12:25:29.908Z,98528.54
2023-09-06T12:27:57.306Z,98536.20
2023-09-06T12:30:25.511Z,98531.64
2023-09-06T12:32:53.682Z,98526.99
2023-09-06T12:35:21.689Z,98528.10
2023-09-06T12:37:49.025Z,98524.73
2023-09-06T12:40:17.007Z,98523.77
2023-09-06T12:42:46.498Z,98526.75
2023-09-06T12:45:28.304Z,98521.98
2023-09-06T12:47:57.330Z,98517.11
2023-09-06T12:50:25.648Z,98516.67
2023-09-06T12:52:54.355Z,98513.60
2023-09-06T12:55:22.216Z,98515.69
2023-09-06T12:57:52.502Z,98513.08
2023-09-06T13:00:20.691Z,98515.43
2023-09-06T13:02:48.379Z,98516.08
2023-09-06T13:05:21.811Z,98514.50
2023-09-06T13:07:49.358Z,98509.68
2023-09-06T13:10:17.449Z,98510.54
2023-09-06T13:12:45.885Z,98506.20
2023-09-06T13:15:13.287Z,98500.17
2023-09-06T13:17:40.772Z,98505.10
2023-09-06T13:20:12.222Z,98506.08
2023-09-06T13:22:40.276Z,98504.52
2023-09-06T13:25:08.442Z,98500.25
2023-09-06T13:27:36.623Z,98496.82
2023-09-06T13:30:06.062Z,98495.16
2023-09-06T13:32:33.912Z,98493.84
2023-09-06T13:35:01.701Z,98489.96
2023-09-06T13:37:29.465Z,98491.60
2023-09-06T13:39:56.748Z,98484.98
2023-09-06T13:42:24.853Z,98486.77
2023-09-06T13:44:52.403Z,98481.45
2023-09-06T13:47:19.820Z,98483.70
2023-09-06T13:49:47.178Z,98478.80
2023-09-06T13:52:16.442Z,98483.01
2023-09-06T13:54:45.102Z,98480.83
2023-09-06T13:57:12.382Z,98479.35
2023-09-06T13:59:40.823Z,98480.36
2023-09-06T14:02:08.359Z,98479.50
2023-09-06T14:04:36.848Z,98480.63
2023-09-06T14:07:04.589Z,98476.23
2023-09-06T14:09:32.349Z,98474.52
2023-09-06T14:11:59.692Z,98473.53
2023-09-06T14:14:27.136Z,98472.73
2023-09-06T14:16:54.823Z,98473.97
2023-09-06T14:19:22.031Z,98476.03
2023-09-06T14:21:49.987Z,98468.01
2023-09-06T14:24:17.711Z,98466.27
2023-09-06T14:26:44.990Z,98465.20
2023-09-06T14:29:16.555Z,98465.15
2023-09-06T14:31:44.725Z,98464.70
2023-09-06T14:34:12.216Z,98463.08
2023-09-06T14:36:40.313Z,98462.68
2023-09-06T14:39:09.623Z,98460.30
2023-09-06T14:41:37.070Z,98458.90
2023-09-06T14:44:05.102Z,98457.14
2023-09-06T14:46:32.545Z,98456.91
2023-09-06T14:48:59.918Z,98454.65
2023-09-06T14:51:27.371Z,98451.94
2023-09-06T14:53:56.126Z,98452.92
2023-09-06T14:56:23.641Z,98452.77
2023-09-06T14:58:51.375Z,98454.11
2023-09-06T15:01:19.421Z,98455.88
2023-09-06T15:03:47.410Z,98459.13
2023-09-06T15:06:15.225Z,98456.22
2023-09-06T15:08:43.754Z,98451.60
2023-09-06T15:11:11.223Z,98451.80
2023-09-06T15:13:39.469Z,98451.80
2023-09-06T15:16:08.408Z,98450.36
2023-09-06T15:18:36.279Z,98451.38
2023-09-06T15:21:04.669Z,98448.44
2023-09-06T15:23:32.914Z,98449.88
2023-09-06T15:26:00.811Z,98453.94
2023-09-06T15:28:28.894Z,98455.41
2023-09-06T15:30:57.504Z,98455.86
2023-09-06T15:33:28.133Z,98456.69
2023-09-06T15:35:57.141Z,98460.23
2023-09-06T15:38:24.971Z,98462.52
2023-09-06T15:40:53.288Z,98457.38
2023-09-06T15:43:21.048Z,98459.09
2023-09-06T15:45:49.511Z,98459.38
2023-09-06T15:48:17.026Z,98461.44
2023-09-06T15:50:44.683Z,98458.15
2023-09-06T15:53:12.922Z,98465.81
2023-09-06T15:55:41.342Z,98468.75
2023-09-06T15:58:10.974Z,98466.99
2023-09-06T16:00:38.578Z,98464.58
2023-09-06T16:03:06.322Z,98463.69
2023-09-06T16:05:35.120Z,98459.66
2023-09-06T16:08:02.571Z,98458.36
2023-09-06T16:10:30.042Z,98459.52
2023-09-06T16:12:57.739Z,98462.89
2023-09-06T16:15:26.795Z,98460.00
2023-09-06T16:17:55.616Z,98465.23
2023-09-06T16:20:24.398Z,98470.62
2023-09-06T16:22:52.826Z,98472.07
2023-09-06T16:25:22.327Z,98471.67
2023-09-06T16:27:50.483Z,98475.33
2023-09-06T16:30:19.483Z,98478.79
2023-09-06T16:32:53.195Z,98483.70
2023-09-06T16:35:21.406Z,98483.31
2023-09-06T16:37:53.797Z,98488.30
2023-09-06T16:40:26.208Z,98483.52
2023-09-06T16:42:53.875Z,98485.77
2023-09-06T16:45:21.695Z,98485.17
2023-09-06T16:47:51.513Z,98485.05
2023-09-06T16:50:21.032Z,98487.76
2023-09-06T16:52:49.493Z,98490.71
2023-09-06T16:55:17.458Z,98490.38
2023-09-06T16:57:45.263Z,98490.10
2023-09-06T17:00:14.848Z,98492.98
2023-09-06T17:02:42.376Z,98498.77
2023-09-06T17:05:12.146Z,98500.46
2023-09-06T17:07:39.668Z,98500.98
2023-09-06T17:10:10.016Z,98503.23
2023-09-06T17:12:38.769Z,98506.77
2023-09-06T17:15:25.423Z,98509.60
2023-09-06T17:17:52.834Z,98514.45
2023-09-06T17:20:25.165Z,98516.06
2023-09-06T17:22:52.865Z,98513.89
2023-09-06T17:25:23.315Z,98509.84
2023-09-06T17:27:50.800Z,98513.33
2023-09-06T17:30:22.287Z,98514.68
2023-09-06T17:33:04.816Z,98514.42
2023-09-06T17:35:32.654Z,98514.46
2023-09-06T17:38:01.569Z,98517.00
2023-09-06T17:40:30.121Z,98518.83
2023-09-06T17:42:57.962Z,98522.82
2023-09-06T17:45:25.772Z,98522.35
2023-09-06T17:47:54.730Z,98521.77
2023-09-06T17:50:23.422Z,98526.34
2023-09-06T17:52:52.688Z,98529.20
2023-09-06T17:55:21.277Z,98524.98
2023-09-06T17:57:49.445Z,98530.52
2023-09-06T18:00:24.657Z,98533.84
2023-09-06T18:02:52.433Z,98534.71
2023-09-06T18:05:21.612Z,98534.88
2023-09-06T18:07:50.062Z,98535.02
2023-09-06T18:10:17.971Z,98536.36
2023-09-06T18:12:46.492Z,98533.71
2023-09-06T18:15:14.563Z,98534.92
2023-09-06T18:17:52.726Z,98535.23
2023-09-06T18:20:20.782Z,98537.31
2023-09-06T18:22:49.103Z,98540.31
2023-09-06T18:25:16.432Z,98539.34
2023-09-06T18:27:48.754Z,98539.86
2023-09-06T18:30:25.855Z,98547.96
2023-09-06T18:32:58.216Z,98551.65
2023-09-06T18:35:28.815Z,98549.96
2023-09-06T18:37:56.130Z,98552.08
2023-09-06T18:40:24.032Z,98556.60
2023-09-06T18:42:51.698Z,98553.35
2023-09-06T18:45:22.120Z,98554.48
2023-09-06T18:47:52.198Z,98553.45
2023-09-06T18:50:20.867Z,98554.17
2023-09-06T18:52:50.028Z,98552.16
2023-09-06T18:55:21.785Z,98554.17
2023-09-06T18:58:04.763Z,98554.13
2023-09-06T19:00:34.425Z,98557.07
2023-09-06T19:03:07.330Z,98561.22
2023-09-06T19:05:36.760Z,98563.02
2023-09-06T19:08:05.366Z,98563.44
2023-09-06T19:10:34.452Z,98568.88
2023-09-06T19:13:06.246Z,98572.85
2023-09-06T19:15:34.995Z,98571.86
2023-09-06T19:18:03.135Z,98573.27
2023-09-06T19:20:31.376Z,98572.58
2023-09-06T19:22:59.079Z,98569.70
2023-09-06T19:25:29.572Z,98571.38
2023-09-06T19:27:58.332Z,98571.79
2023-09-06T19:30:30.181Z,98568.52
2023-09-06T19:32:58.195Z,98566.27
2023-09-06T19:35:26.634Z,98563.02
2023-09-06T19:37:54.554Z,98561.56
2023-09-06T19:40:23.354Z,98558.89
2023-09-06T19:42:54.942Z,98560.30
2023-09-06T19:45:23.013Z,98563.12
2023-09-06T19:47:51.112Z,98560.85
2023-09-06T19:50:22.535Z,98563.92
2023-09-06T19:52:54.244Z,98565.67
2023-09-06T19:55:23.822Z,98563.98
2023-09-06T19:57:51.797Z,98566.14
2023-09-06T20:00:19.508Z,98566.15
2023-09-06T20:02:48.073Z,98570.44
2023-09-06T20:05:16.034Z,98566.68
2023-09-06T20:07:44.818Z,98572.00
2023-09-06T20:10:13.510Z,98568.46
2023-09-06T20:12:43.014Z,98567.02
2023-09-06T20:15:12.369Z,98568.78
2023-09-06T20:17:43.553Z,98565.42
2023-09-06T20:20:11.795Z,98561.13
2023-09-06T20:22:39.263Z,98563.69
2023-09-06T20:25:07.387Z,98561.16
2023-09-06T20:27:35.317Z,98563.32
2023-09-06T20:30:03.209Z,98564.20
2023-09-06T20:32:31.692Z,98566.02
2023-09-06T20:34:59.444Z,98563.98
2023-09-06T20:37:27.081Z,98560.77
2023-09-06T20:39:55.067Z,98560.62
2023-09-06T20:42:23.129Z,98565.67
2023-09-06T20:44:52.720Z,98563.34
2023-09-06T20:47:20.729Z,98563.13
2023-09-06T20:49:49.408Z,98561.05
2023-09-06T20:52:17.247Z,98562.48
2023-09-06T20:54:44.935Z,98563.25
2023-09-06T20:57:12.600Z,98565.01
2023-09-06T20:59:40.347Z,98568.58
2023-09-06T21:02:08.178Z,98566.45
2023-09-06T21:04:35.709Z,98571.96
2023-09-06T21:07:03.178Z,98574.02
2023-09-06T21:09:30.592Z,98569.91
2023-09-06T21:11:58.089Z,98572.59
2023-09-06T21:14:25.354Z,98574.68
2023-09-06T21:16:52.652Z,98576.27
2023-09-06T21:19:19.825Z,98580.58
2023-09-06T21:21:46.962Z,98578.37
2023-09-06T21:24:14.301Z,98578.60
2023-09-06T21:26:41.676Z,98577.63
2023-09-06T21:29:18.096Z,98574.90
2023-09-06T21:31:53.525Z,98574.93
2023-09-06T21:34:25.760Z,98576.10
2023-09-06T21:36:53.327Z,98575.52
2023-09-06T21:39:20.584Z,98575.29
2023-09-06T21:41:48.954Z,98579.52
2023-09-06T21:44:17.831Z,98586.05
2023-09-06T21:46:45.245Z,98585.25
2023-09-06T21:49:12.469Z,98581.98
2023-09-06T21:51:39.706Z,98586.91
2023-09-06T21:54:06.954Z,98590.91
2023-09-06T21:56:34.225Z,98590.91
2023-09-06T21:59:02.684Z,98595.42
2023-09-06T22:01:30.006Z,98595.83
2023-09-06T22:03:57.348Z,98598.71
2023-09-06T22:06:24.554Z,98599.05
2023-09-06T22:08:51.981Z,98599.20
2023-09-06T22:11:19.149Z,98595.25
2023-09-06T22:13:46.297Z,98600.25
2023-09-06T22:16:13.750Z,98603.41
2023-09-06T22:18:41.073Z,98604.38
2023-09-06T22:21:08.424Z,98604.84
2023-09-06T22:23:35.992Z,98609.69
2023-09-06T22:26:03.428Z,98606.79
2023-09-06T22:28:33.695Z,98613.31
2023-09-06T22:31:01.413Z,98614.38
2023-09-06T22:33:31.865Z,98620.83
2023-09-06T22:35:59.352Z,98619.48
2023-09-06T22:38:26.578Z,98623.94
2023-09-06T22:40:53.910Z,98627.38
2023-09-06T22:43:21.178Z,98633.23
2023-09-06T22:45:51.298Z,98633.77
2023-09-06T22:48:18.794Z,98637.37
2023-09-06T22:50:46.751Z,98639.98
2023-09-06T22:53:13.929Z,98639.95
2023-09-06T22:55:41.340Z,98636.77
2023-09-06T22:58:08.941Z,98634.95
2023-09-06T23:00:39.711Z,98636.30
2023-09-06T23:03:10.187Z,98635.02
2023-09-06T23:05:37.945Z,98637.47
2023-09-06T23:08:06.243Z,98632.81
2023-09-06T23:10:34.768Z,98632.66
2023-09-06T23:13:02.513Z,98627.83
2023-09-06T23:15:30.613Z,98624.04
2023-09-06T23:17:58.150Z,98627.83
2023-09-06T23:20:30.399Z,98627.11
2023-09-06T23:23:00.080Z,98627.60
2023-09-06T23:25:37.266Z,98628.87
2023-09-06T23:28:16.863Z,98627.73
2023-09-06T23:30:50.829Z,98628.91
2023-09-06T23:33:28.678Z,98627.70
2023-09-06T23:35:56.112Z,98631.58
2023-09-06T23:38:23.628Z,98625.63
2023-09-06T23:40:50.885Z,98628.34
2023-09-06T23:43:18.182Z,98629.02
2023-09-06T23:45:46.571Z,98629.48
2023-09-06T23:48:13.972Z,98625.67
2023-09-06T23:50:41.412Z,98625.35
2023-09-06T23:53:08.535Z,98620.16
2023-09-06T23:55:36.885Z,98622.55
2023-09-06T23:58:05.818Z,98620.35
